createdAt,value
2018-08-23T00:01:18.622Z,60.9
2018-08-23T00:02:09.521Z,60.9
2018-08-23T00:02:59.270Z,60.9
2018-08-23T00:03:50.116Z,60.9
2018-08-23T00:04:39.480Z,60.9
2018-08-23T00:05:29.033Z,60.9
2018-08-23T00:06:19.113Z,60.9
2018-08-23T00:07:10.067Z,60.8
2018-08-23T00:08:00.220Z,60.8
2018-08-23T00:08:50.309Z,60.8
2018-08-23T00:09:39.992Z,60.8
2018-08-23T00:10:30.155Z,60.8
2018-08-23T00:11:20.148Z,60.8
2018-08-23T00:12:10.375Z,60.8
2018-08-23T00:31:27.207Z,60.6
2018-08-23T00:32:17.583Z,60.6
2018-08-23T00:33:07.089Z,60.6
2018-08-23T00:33:57.379Z,60.6
2018-08-23T00:34:47.499Z,60.6
2018-08-23T00:35:37.553Z,60.6
2018-08-23T00:36:27.328Z,60.6
2018-08-23T00:37:17.954Z,60.6
2018-08-23T00:38:06.885Z,60.6
2018-08-23T00:38:57.827Z,60.6
2018-08-23T00:39:48.166Z,60.6
2018-08-23T00:40:38.282Z,60.6
2018-08-23T00:41:27.736Z,60.6
2018-08-23T00:42:18.111Z,60.6
2018-08-23T00:43:08.094Z,60.6
2018-08-23T00:43:57.856Z,60.6
2018-08-23T00:44:46.233Z,60.6
2018-08-23T00:45:38.026Z,60.6
2018-08-23T00:46:28.388Z,60.6
2018-08-23T00:47:18.396Z,60.6
2018-08-23T00:48:08.466Z,60.5
2018-08-23T00:48:57.715Z,60.5
2018-08-23T00:49:48.614Z,60.5
2018-08-23T00:50:37.806Z,60.5
2018-08-23T00:51:28.150Z,60.5
2018-08-23T00:52:18.833Z,60.5
2018-08-23T00:53:09.205Z,60.5
2018-08-23T00:53:58.431Z,60.4
2018-08-23T00:54:49.330Z,60.4
2018-08-23T00:55:39.298Z,60.5
2018-08-23T00:56:28.840Z,60.4
2018-08-23T00:57:18.912Z,60.4
2018-08-23T00:58:09.239Z,60.4
2018-08-23T00:58:59.598Z,60.4
2018-08-23T00:59:49.613Z,60.4
2018-08-23T01:00:39.433Z,60.4
2018-08-23T01:01:29.753Z,60.4
2018-08-23T01:02:19.856Z,60.4
2018-08-23T01:03:09.636Z,60.4
2018-08-23T01:03:59.400Z,60.4
2018-08-23T01:04:50.004Z,60.4
2018-08-23T01:05:39.810Z,60.4
2018-08-23T01:06:30.149Z,60.4
2018-08-23T01:07:20.205Z,60.4
2018-08-23T01:08:10.045Z,60.4
2018-08-23T01:09:00.062Z,60.3
2018-08-23T01:09:50.427Z,60.3
2018-08-23T01:10:39.927Z,60.3
2018-08-23T01:11:30.358Z,60.3
2018-08-23T01:12:20.597Z,60.3
2018-08-23T01:13:10.667Z,60.3
2018-08-23T01:14:00.417Z,60.3
2018-08-23T01:14:50.242Z,60.3
2018-08-23T01:15:40.279Z,60.3
2018-08-23T01:16:30.337Z,60.3
2018-08-23T01:17:20.434Z,60.3
2018-08-23T01:18:09.632Z,60.3
2018-08-23T01:19:00.569Z,60.3
2018-08-23T01:19:51.229Z,60.3
2018-08-23T01:20:40.669Z,60.3
2018-08-23T01:21:31.354Z,60.3
2018-08-23T01:22:21.453Z,60.3
2018-08-23T01:23:11.477Z,60.3
2018-08-23T01:24:00.940Z,60.3
2018-08-23T01:24:51.325Z,60.2
2018-08-23T01:25:40.790Z,60.2
2018-08-23T01:26:31.734Z,60.3
2018-08-23T01:27:21.781Z,60.2
2018-08-23T01:28:11.569Z,60.2
2018-08-23T01:29:01.339Z,60.2
2018-08-23T01:29:51.390Z,60.2
2018-08-23T01:30:41.755Z,60.2
2018-08-23T01:31:32.118Z,60.2
2018-08-23T01:32:22.189Z,60.2
2018-08-23T01:33:12.255Z,60.2
2018-08-23T01:34:01.420Z,60.1
2018-08-23T01:34:52.053Z,60.1
2018-08-23T01:35:42.448Z,60.1
2018-08-23T01:36:32.448Z,60.1
2018-08-23T01:37:22.508Z,60.1
2018-08-23T01:38:12.304Z,60.1
2018-08-23T01:39:02.109Z,60.1
2018-08-23T01:39:52.409Z,60.1
2018-08-23T01:40:42.483Z,60.1
2018-08-23T01:41:32.570Z,60.1
2018-08-23T01:42:22.641Z,60.1
2018-08-23T01:43:12.965Z,60.1
2018-08-23T01:44:03.010Z,60.1
2018-08-23T01:44:52.503Z,60.1
2018-08-23T01:45:42.295Z,60.1
2018-08-23T01:46:32.635Z,60.1
2018-08-23T01:47:22.672Z,60.1
2018-08-23T01:48:13.071Z,60.1
2018-08-23T01:49:03.128Z,60.1
2018-08-23T01:49:53.182Z,60
2018-08-23T01:50:42.933Z,60.1
2018-08-23T01:51:33.040Z,60
2018-08-23T01:52:23.654Z,60.1
2018-08-23T01:53:13.155Z,60
2018-08-23T01:54:03.322Z,60
2018-08-23T01:54:53.842Z,60
2018-08-23T01:55:43.197Z,60
2018-08-23T01:56:33.227Z,60
2018-08-23T01:57:22.689Z,59.9
2018-08-23T01:58:13.553Z,59.9
2018-08-23T01:59:03.984Z,59.9
2018-08-23T01:59:53.399Z,59.9
2018-08-23T02:00:43.761Z,59.9
2018-08-23T02:01:33.824Z,59.9
2018-08-23T02:02:24.146Z,59.9
2018-08-23T02:03:14.309Z,59.9
2018-08-23T02:04:04.036Z,59.9
2018-08-23T02:04:54.089Z,59.9
2018-08-23T02:05:44.722Z,59.9
2018-08-23T02:06:33.908Z,59.9
2018-08-23T02:07:24.296Z,59.9
2018-08-23T02:08:14.901Z,59.9
2018-08-23T02:09:04.124Z,59.9
2018-08-23T02:09:54.726Z,59.9
2018-08-23T02:10:45.062Z,59.9
2018-08-23T02:11:35.134Z,59.9
2018-08-23T02:12:25.166Z,59.9
2018-08-23T02:13:15.276Z,59.9
2018-08-23T02:14:04.756Z,59.9
2018-08-23T02:14:55.398Z,59.8
2018-08-23T02:15:44.898Z,59.8
2018-08-23T02:16:34.957Z,59.8
2018-08-23T02:17:25.583Z,59.8
2018-08-23T02:18:15.663Z,59.8
2018-08-23T02:19:05.014Z,59.8
2018-08-23T02:19:55.040Z,59.8
2018-08-23T02:20:45.568Z,59.8
2018-08-23T02:21:35.888Z,59.8
2018-08-23T02:22:25.198Z,59.8
2018-08-23T02:23:15.744Z,59.8
2018-08-23T02:24:05.832Z,59.8
2018-08-23T02:24:55.667Z,59.8
2018-08-23T02:25:45.653Z,59.8
2018-08-23T02:26:35.802Z,59.8
2018-08-23T02:27:25.216Z,59.8
2018-08-23T02:28:15.567Z,59.8
2018-08-23T02:29:05.747Z,59.8
2018-08-23T02:29:56.353Z,59.8
2018-08-23T02:30:46.370Z,59.7
2018-08-23T02:31:36.140Z,59.7
2018-08-23T02:32:25.897Z,59.7
2018-08-23T02:33:16.247Z,59.7
2018-08-23T02:34:06.893Z,59.7
2018-08-23T02:34:56.712Z,59.7
2018-08-23T02:35:46.720Z,59.7
2018-08-23T02:36:36.779Z,59.7
2018-08-23T02:37:26.565Z,59.7
2018-08-23T02:38:17.808Z,59.7
2018-08-23T02:39:06.706Z,59.7
2018-08-23T02:39:56.788Z,59.6
2018-08-23T02:40:47.119Z,59.6
2018-08-23T02:41:37.464Z,59.6
2018-08-23T02:42:27.529Z,59.6
2018-08-23T02:43:17.430Z,59.6
2018-08-23T02:44:06.608Z,59.6
2018-08-23T02:44:56.972Z,59.6
2018-08-23T02:45:47.262Z,59.6
2018-08-23T02:46:37.557Z,59.6
2018-08-23T02:47:27.892Z,59.6
2018-08-23T02:48:17.961Z,59.6
2018-08-23T02:49:08.085Z,59.6
2018-08-23T02:49:57.812Z,59.6
2018-08-23T02:50:48.150Z,59.6
2018-08-23T02:51:37.939Z,59.6
2018-08-23T02:52:27.682Z,59.6
2018-08-23T02:53:17.515Z,59.6
2018-08-23T02:54:08.097Z,59.6
2018-08-23T02:54:58.185Z,59.5
2018-08-23T02:55:48.257Z,59.5
2018-08-23T02:56:38.600Z,59.5
2018-08-23T02:57:27.797Z,59.5
2018-08-23T02:58:18.459Z,59.5
2018-08-23T02:59:08.579Z,59.5
2018-08-23T02:59:58.588Z,59.5
2018-08-23T03:00:47.829Z,59.5
2018-08-23T03:01:39.027Z,59.5
2018-08-23T03:02:28.783Z,59.5
2018-08-23T03:03:19.177Z,59.4
2018-08-23T03:04:09.225Z,59.4
2018-08-23T03:04:58.423Z,59.4
2018-08-23T03:05:48.499Z,59.4
2018-08-23T03:06:39.432Z,59.4
2018-08-23T03:07:29.482Z,59.4
2018-08-23T03:08:19.554Z,59.4
2018-08-23T03:09:09.316Z,59.4
2018-08-23T03:09:59.099Z,59.4
2018-08-23T03:10:49.427Z,59.4
2018-08-23T03:11:39.789Z,59.4
2018-08-23T03:12:29.568Z,59.4
2018-08-23T03:13:19.397Z,59.4
2018-08-23T03:14:10.068Z,59.4
2018-08-23T03:14:59.751Z,59.4
2018-08-23T03:15:49.821Z,59.4
2018-08-23T03:16:40.158Z,59.4
2018-08-23T03:17:29.659Z,59.4
2018-08-23T03:18:20.303Z,59.4
2018-08-23T03:19:10.071Z,59.3
2018-08-23T03:20:00.498Z,59.4
2018-08-23T03:20:50.182Z,59.3
2018-08-23T03:21:40.525Z,59.3
2018-08-23T03:22:30.028Z,59.3
2018-08-23T03:23:20.408Z,59.3
2018-08-23T03:24:10.431Z,59.3
2018-08-23T03:25:00.512Z,59.3
2018-08-23T03:25:50.616Z,59.3
2018-08-23T03:26:40.950Z,59.3
2018-08-23T03:27:30.417Z,59.3
2018-08-23T03:28:20.500Z,59.3
2018-08-23T03:29:10.824Z,59.3
2018-08-23T03:30:00.887Z,59.3
2018-08-23T03:30:51.310Z,59.3
2018-08-23T03:31:40.775Z,59.3
2018-08-23T03:32:30.857Z,59.3
2018-08-23T03:33:21.170Z,59.3
2018-08-23T03:34:11.545Z,59.3
2018-08-23T03:35:00.712Z,59.3
2018-08-23T03:35:51.364Z,59.2
2018-08-23T03:36:41.404Z,59.2
2018-08-23T03:37:31.251Z,59.2
2018-08-23T03:38:21.844Z,59.2
2018-08-23T03:39:11.616Z,59.2
2018-08-23T03:40:01.785Z,59.2
2018-08-23T03:40:51.764Z,59.2
2018-08-23T03:41:41.845Z,59.2
2018-08-23T03:42:31.609Z,59.2
2018-08-23T03:43:22.142Z,59.2
2018-08-23T03:44:11.134Z,59.1
2018-08-23T03:45:01.786Z,59.1
2018-08-23T03:45:52.199Z,59.1
2018-08-23T03:46:42.449Z,59.1
2018-08-23T03:47:31.669Z,59.1
2018-08-23T03:48:22.630Z,59.1
2018-08-23T03:49:12.376Z,59.1
2018-08-23T03:50:01.591Z,59.1
2018-08-23T03:50:52.514Z,59.1
2018-08-23T03:51:42.349Z,59.1
2018-08-23T03:52:33.006Z,59.1
2018-08-23T03:53:22.119Z,59.1
2018-08-23T03:54:13.077Z,59.1
2018-08-23T03:55:02.330Z,59.1
2018-08-23T03:55:53.179Z,59.1
2018-08-23T03:56:42.935Z,59.1
2018-08-23T03:57:33.035Z,59.1
2018-08-23T03:58:22.526Z,59.1
2018-08-23T03:59:13.409Z,59.1
2018-08-23T04:00:03.553Z,59.1
2018-08-23T04:00:53.561Z,59
2018-08-23T04:01:43.604Z,59
2018-08-23T04:02:33.671Z,59
2018-08-23T04:03:23.449Z,59
2018-08-23T04:04:13.262Z,59
2018-08-23T04:05:03.312Z,59
2018-08-23T04:05:53.694Z,59
2018-08-23T04:06:43.746Z,59
2018-08-23T04:07:33.247Z,59
2018-08-23T04:08:24.136Z,59
2018-08-23T04:09:13.332Z,58.9
2018-08-23T04:10:04.268Z,58.9
2018-08-23T04:10:53.480Z,58.9
2018-08-23T04:11:44.118Z,58.9
2018-08-23T04:12:34.176Z,58.9
2018-08-23T04:13:24.535Z,58.9
2018-08-23T04:14:14.640Z,58.9
2018-08-23T04:15:04.403Z,58.9
2018-08-23T04:15:54.450Z,58.9
2018-08-23T04:16:44.817Z,58.9
2018-08-23T04:17:34.565Z,58.9
2018-08-23T04:18:24.620Z,58.9
2018-08-23T04:19:14.972Z,58.9
2018-08-23T04:20:05.067Z,58.9
2018-08-23T04:20:55.135Z,58.9
2018-08-23T04:21:44.935Z,58.9
2018-08-23T04:22:34.957Z,58.9
2018-08-23T04:23:24.737Z,58.9
2018-08-23T04:24:15.094Z,58.8
2018-08-23T04:25:05.197Z,58.8
2018-08-23T04:25:55.234Z,58.8
2018-08-23T04:26:45.559Z,58.8
2018-08-23T04:27:35.351Z,58.8
2018-08-23T04:28:25.155Z,58.8
2018-08-23T04:29:15.730Z,58.8
2018-08-23T04:30:05.236Z,58.8
2018-08-23T04:30:55.318Z,58.8
2018-08-23T04:31:45.676Z,58.8
2018-08-23T04:32:36.034Z,58.8
2018-08-23T04:33:25.779Z,58.8
2018-08-23T04:34:15.269Z,58.8
2018-08-23T04:35:05.896Z,58.8
2018-08-23T04:35:56.258Z,58.8
2018-08-23T04:36:45.779Z,58.8
2018-08-23T04:37:36.093Z,58.8
2018-08-23T04:38:26.224Z,58.8
2018-08-23T04:39:16.488Z,58.8
2018-08-23T04:40:05.729Z,58.7
2018-08-23T04:40:56.372Z,58.7
2018-08-23T04:41:46.718Z,58.7
2018-08-23T04:42:36.208Z,58.7
2018-08-23T05:00:32.874Z,58.5
2018-08-23T05:01:23.838Z,58.5
2018-08-23T05:03:03.339Z,58.5
2018-08-23T05:03:53.856Z,58.5
2018-08-23T05:04:44.055Z,58.5
2018-08-23T05:05:34.097Z,58.5
2018-08-23T05:06:23.676Z,58.5
2018-08-23T05:07:13.941Z,58.5
2018-08-23T05:08:04.273Z,58.5
2018-08-23T05:08:54.330Z,58.5
2018-08-23T05:09:44.403Z,58.4
2018-08-23T05:10:34.032Z,58.4
2018-08-23T05:11:24.020Z,58.4
2018-08-23T05:12:14.600Z,58.4
2018-08-23T05:13:04.717Z,58.4
2018-08-23T05:13:54.328Z,58.4
2018-08-23T05:14:44.496Z,58.4
2018-08-23T05:15:34.317Z,58.4
2018-08-23T05:16:24.102Z,58.4
2018-08-23T05:17:13.674Z,58.4
2018-08-23T05:18:04.784Z,58.4
2018-08-23T05:18:54.393Z,58.4
2018-08-23T05:19:44.701Z,58.4
2018-08-23T05:20:34.969Z,58.4
2018-08-23T05:21:24.780Z,58.4
2018-08-23T05:22:15.071Z,58.4
2018-08-23T05:23:05.628Z,58.4
2018-08-23T05:23:55.535Z,58.4
2018-08-23T05:24:45.559Z,58.3
2018-08-23T05:25:35.615Z,58.4
2018-08-23T05:26:25.150Z,58.3
2018-08-23T05:27:15.788Z,58.4
2018-08-23T05:28:05.552Z,58.3
2018-08-23T05:28:55.876Z,58.3
2018-08-23T05:29:46.362Z,58.3
2018-08-23T05:30:35.737Z,58.3
2018-08-23T05:31:26.067Z,58.3
2018-08-23T05:32:16.125Z,58.3
2018-08-23T05:33:06.249Z,58.3
2018-08-23T05:33:56.246Z,58.3
2018-08-23T05:34:46.092Z,58.3
2018-08-23T05:35:35.872Z,58.3
2018-08-23T05:36:26.206Z,58.3
2018-08-23T05:37:16.268Z,58.3
2018-08-23T05:38:06.589Z,58.3
2018-08-23T05:38:56.205Z,58.3
2018-08-23T05:39:46.702Z,58.3
2018-08-23T05:40:36.502Z,58.2
2018-08-23T05:41:26.010Z,58.2
2018-08-23T05:42:16.629Z,58.2
2018-08-23T05:43:06.667Z,58.2
2018-08-23T05:43:56.750Z,58.2
2018-08-23T05:44:47.089Z,58.2
2018-08-23T05:45:36.887Z,58.2
2018-08-23T05:46:27.672Z,58.2
2018-08-23T05:47:16.767Z,58.1
2018-08-23T05:48:06.915Z,58.2
2018-08-23T05:48:57.448Z,58.1
2018-08-23T05:49:47.200Z,58.1
2018-08-23T05:50:37.042Z,58.1
2018-08-23T05:51:27.346Z,58.1
2018-08-23T05:52:17.417Z,58.1
2018-08-23T05:53:07.192Z,58.1
2018-08-23T05:53:57.557Z,58.1
2018-08-23T05:54:47.349Z,58.1
2018-08-23T05:55:37.412Z,58.1
2018-08-23T05:56:27.293Z,58.1
2018-08-23T05:57:18.072Z,58.1
2018-08-23T05:58:07.612Z,58.1
2018-08-23T05:58:57.932Z,58.1
2018-08-23T05:59:48.280Z,58.1
2018-08-23T06:00:37.814Z,58.1
2018-08-23T06:01:28.407Z,58.1
2018-08-23T06:02:18.452Z,58.1
2018-08-23T06:03:08.293Z,58.1
2018-08-23T06:03:58.295Z,58
2018-08-23T06:04:48.364Z,58
2018-08-23T06:05:38.734Z,58
2018-08-23T06:06:28.497Z,58
2018-08-23T06:07:18.899Z,58
2018-08-23T06:08:07.986Z,58
2018-08-23T06:08:58.977Z,58
2018-08-23T06:09:48.721Z,58
2018-08-23T06:10:39.073Z,57.9
2018-08-23T06:11:28.920Z,58
2018-08-23T06:12:18.674Z,57.9
2018-08-23T06:13:09.015Z,57.9
2018-08-23T06:13:59.064Z,57.9
2018-08-23T06:14:49.440Z,57.9
2018-08-23T06:15:39.466Z,57.9
2018-08-23T06:16:29.550Z,57.9
2018-08-23T06:17:18.786Z,57.9
2018-08-23T06:18:09.654Z,57.9
2018-08-23T06:18:59.720Z,57.9
2018-08-23T06:19:49.878Z,57.9
2018-08-23T06:20:39.846Z,57.9
2018-08-23T06:21:29.681Z,57.9
2018-08-23T06:22:20.007Z,57.9
2018-08-23T06:23:09.790Z,57.9
2018-08-23T06:23:59.349Z,57.9
2018-08-23T06:24:49.380Z,57.9
2018-08-23T06:25:39.291Z,57.9
2018-08-23T06:26:29.312Z,57.8
2018-08-23T06:27:18.943Z,57.8
2018-08-23T06:28:09.941Z,57.8
2018-08-23T06:28:59.028Z,57.8
2018-08-23T06:29:49.864Z,57.8
2018-08-23T06:30:39.077Z,57.8
2018-08-23T06:31:29.627Z,57.8
2018-08-23T06:41:30.280Z,57.7
2018-08-23T06:42:21.028Z,57.7
2018-08-23T06:43:11.090Z,57.7
2018-08-23T06:44:00.964Z,57.7
2018-08-23T06:44:51.142Z,57.7
2018-08-23T06:45:40.769Z,57.7
2018-08-23T06:46:31.187Z,57.7
2018-08-23T06:47:21.204Z,57.6
2018-08-23T06:48:10.880Z,57.7
2018-08-23T06:49:01.465Z,57.6
2018-08-23T06:49:51.382Z,57.6
2018-08-23T06:50:40.667Z,57.6
2018-08-23T06:51:31.775Z,57.6
2018-08-23T06:52:21.337Z,57.6
2018-08-23T06:53:12.528Z,57.6
2018-08-23T06:54:01.259Z,57.6
2018-08-23T06:54:51.465Z,57.6
2018-08-23T06:55:42.164Z,57.6
2018-08-23T06:56:31.959Z,57.6
2018-08-23T06:57:21.437Z,57.6
2018-08-23T06:58:12.000Z,57.6
2018-08-23T06:59:02.131Z,57.6
2018-08-23T06:59:51.728Z,57.6
2018-08-23T07:00:42.175Z,57.6
2018-08-23T07:01:32.525Z,57.6
2018-08-23T07:02:22.188Z,57.5
2018-08-23T07:03:12.487Z,57.5
2018-08-23T07:04:02.699Z,57.5
2018-08-23T07:04:52.678Z,57.5
2018-08-23T07:05:41.795Z,57.5
2018-08-23T07:06:32.800Z,57.5
2018-08-23T07:07:22.554Z,57.5
2018-08-23T07:08:13.169Z,57.5
2018-08-23T07:09:02.442Z,57.5
2018-08-23T07:09:52.703Z,57.5
2018-08-23T07:10:43.775Z,57.4
2018-08-23T07:11:32.531Z,57.4
2018-08-23T07:12:22.804Z,57.4
2018-08-23T07:13:13.135Z,57.4
2018-08-23T07:14:03.033Z,57.4
2018-08-23T07:14:53.541Z,57.4
2018-08-23T07:15:42.900Z,57.4
2018-08-23T07:16:33.395Z,57.4
2018-08-23T07:17:23.400Z,57.4
2018-08-23T07:18:13.645Z,57.4
2018-08-23T07:19:03.198Z,57.4
2018-08-23T07:19:53.619Z,57.4
2018-08-23T07:20:44.002Z,57.4
2018-08-23T07:21:33.876Z,57.4
2018-08-23T07:22:23.873Z,57.4
2018-08-23T07:23:12.740Z,57.4
2018-08-23T07:24:03.288Z,57.4
2018-08-23T07:24:53.575Z,57.3
2018-08-23T07:25:44.187Z,57.3
2018-08-23T07:26:34.674Z,57.3
2018-08-23T07:27:24.541Z,57.3
2018-08-23T07:28:14.415Z,57.3
2018-08-23T07:29:04.478Z,57.3
2018-08-23T07:29:56.243Z,57.3
2018-08-23T07:30:44.972Z,57.3
2018-08-23T07:31:35.739Z,57.3
2018-08-23T07:32:25.464Z,57.3
2018-08-23T07:33:16.150Z,57.3
2018-08-23T07:34:05.522Z,57.3
2018-08-23T07:34:55.378Z,57.3
2018-08-23T07:35:45.737Z,57.3
2018-08-23T07:36:35.337Z,57.3
2018-08-23T07:37:24.770Z,57.3
2018-08-23T07:38:15.639Z,57.3
2018-08-23T07:39:05.863Z,57.3
2018-08-23T07:39:56.053Z,57.2
2018-08-23T07:40:46.108Z,57.2
2018-08-23T07:41:35.916Z,57.2
2018-08-23T07:42:25.536Z,57.2
2018-08-23T07:43:15.930Z,57.2
2018-08-23T07:44:06.102Z,57.2
2018-08-23T07:44:56.148Z,57.2
2018-08-23T07:45:46.544Z,57.1
2018-08-23T07:46:36.042Z,57.1
2018-08-23T07:47:26.379Z,57.1
2018-08-23T07:48:16.447Z,57.1
2018-08-23T07:49:06.248Z,57.1
2018-08-23T07:49:56.971Z,57.1
2018-08-23T07:50:46.364Z,57.1
2018-08-23T07:51:36.997Z,57.1
2018-08-23T07:52:27.257Z,57.1
2018-08-23T07:53:18.371Z,57.1
2018-08-23T07:54:06.863Z,57.1
2018-08-23T07:54:56.723Z,57.1
2018-08-23T07:55:47.288Z,57.1
2018-08-23T07:56:37.429Z,57.1
2018-08-23T07:57:27.418Z,57.1
2018-08-23T07:58:17.259Z,57.1
2018-08-23T07:59:07.538Z,57.1
2018-08-23T07:59:57.335Z,57.1
2018-08-23T08:00:47.410Z,57
2018-08-23T08:01:37.402Z,57
2018-08-23T08:02:27.510Z,57
2018-08-23T08:03:17.572Z,57
2018-08-23T08:04:07.735Z,57
2018-08-23T08:04:57.500Z,57
2018-08-23T08:05:48.220Z,57
2018-08-23T08:06:37.556Z,57
2018-08-23T08:07:28.230Z,56.9
2018-08-23T08:08:17.991Z,56.9
2018-08-23T08:09:08.321Z,56.9
2018-08-23T08:09:58.108Z,56.9
2018-08-23T08:10:48.470Z,56.9
2018-08-23T08:11:38.507Z,56.9
2018-08-23T08:12:28.564Z,56.9
2018-08-23T08:13:18.397Z,56.9
2018-08-23T08:14:08.746Z,56.9
2018-08-23T08:14:59.883Z,56.9
2018-08-23T08:15:48.575Z,56.9
2018-08-23T08:16:38.639Z,56.9
2018-08-23T08:17:29.021Z,56.9
2018-08-23T08:18:18.507Z,56.9
2018-08-23T08:19:09.123Z,56.9
2018-08-23T08:19:58.895Z,56.9
2018-08-23T08:20:49.703Z,56.8
2018-08-23T08:21:39.080Z,56.8
2018-08-23T08:22:29.395Z,56.8
2018-08-23T08:23:19.458Z,56.8
2018-08-23T08:24:08.666Z,56.8
2018-08-23T08:24:59.583Z,56.8
2018-08-23T08:25:49.675Z,56.8
2018-08-23T08:26:39.426Z,56.8
2018-08-23T08:27:29.206Z,56.8
2018-08-23T08:28:19.881Z,56.7
2018-08-23T08:29:10.026Z,56.7
2018-08-23T08:30:00.000Z,56.7
2018-08-23T08:30:49.904Z,56.7
2018-08-23T08:31:40.110Z,56.7
2018-08-23T08:32:30.283Z,56.6
2018-08-23T08:33:20.621Z,56.6
2018-08-23T08:34:09.718Z,56.6
2018-08-23T08:35:00.108Z,56.6
2018-08-23T08:35:49.494Z,56.6
2018-08-23T08:36:40.550Z,56.6
2018-08-23T08:37:30.662Z,56.6
2018-08-23T08:38:20.548Z,56.6
2018-08-23T08:39:10.458Z,56.6
2018-08-23T08:40:00.748Z,56.6
2018-08-23T08:40:50.804Z,56.6
2018-08-23T08:41:40.774Z,56.6
2018-08-23T08:42:31.080Z,56.6
2018-08-23T08:43:20.876Z,56.6
2018-08-23T08:44:11.039Z,56.6
2018-08-23T08:45:00.963Z,56.6
2018-08-23T08:45:51.165Z,56.6
2018-08-23T08:46:41.498Z,56.6
2018-08-23T08:47:31.529Z,56.6
2018-08-23T08:48:20.727Z,56.6
2018-08-23T08:49:11.054Z,56.6
2018-08-23T08:50:00.985Z,56.6
2018-08-23T08:50:52.024Z,56.6
2018-08-23T08:51:41.222Z,56.6
2018-08-23T08:52:31.949Z,56.6
2018-08-23T08:53:21.435Z,56.6
2018-08-23T08:54:11.739Z,56.6
2018-08-23T08:55:01.929Z,56.6
2018-08-23T08:55:51.501Z,56.6
2018-08-23T08:56:42.464Z,56.6
2018-08-23T08:57:32.225Z,56.6
2018-08-23T08:58:22.200Z,56.6
2018-08-23T09:15:00.683Z,56.4
2018-08-23T09:15:50.721Z,56.4
2018-08-23T09:16:40.837Z,56.4
2018-08-23T09:17:30.854Z,56.4
2018-08-23T09:18:20.928Z,56.4
2018-08-23T09:19:10.484Z,56.4
2018-08-23T09:20:01.052Z,56.4
2018-08-23T09:20:51.353Z,56.4
2018-08-23T09:21:40.895Z,56.4
2018-08-23T09:22:31.093Z,56.4
2018-08-23T09:23:20.998Z,56.4
2018-08-23T09:24:10.826Z,56.4
2018-08-23T09:25:01.169Z,56.4
2018-08-23T09:25:51.219Z,56.4
2018-08-23T09:26:41.584Z,56.4
2018-08-23T09:27:31.668Z,56.4
2018-08-23T09:28:21.146Z,56.4
2018-08-23T09:29:11.534Z,56.4
2018-08-23T09:30:01.880Z,56.3
2018-08-23T09:30:51.366Z,56.3
2018-08-23T09:31:42.011Z,56.3
2018-08-23T09:32:32.071Z,56.3
2018-08-23T09:33:21.551Z,56.3
2018-08-23T09:34:12.159Z,56.3
2018-08-23T09:35:02.453Z,56.3
2018-08-23T09:35:51.307Z,56.3
2018-08-23T09:36:42.383Z,56.3
2018-08-23T09:37:32.446Z,56.3
2018-08-23T09:38:22.213Z,56.3
2018-08-23T09:39:12.313Z,56.3
2018-08-23T09:40:02.645Z,56.3
2018-08-23T09:40:52.715Z,56.3
2018-08-23T09:41:42.718Z,56.3
2018-08-23T09:42:32.233Z,56.4
2018-08-23T09:43:22.634Z,56.4
2018-08-23T09:44:12.379Z,56.4
2018-08-23T09:45:03.040Z,56.5
2018-08-23T09:45:52.801Z,56.5
2018-08-23T09:46:42.578Z,56.6
2018-08-23T09:47:32.641Z,56.6
2018-08-23T09:48:22.731Z,56.7
2018-08-23T09:49:12.761Z,56.7
2018-08-23T09:50:03.817Z,56.8
2018-08-23T09:50:54.578Z,56.8
2018-08-23T09:51:43.270Z,56.8
2018-08-23T09:52:33.305Z,56.9
2018-08-23T09:53:23.649Z,56.9
2018-08-23T09:54:12.894Z,57
2018-08-23T09:55:03.523Z,57
2018-08-23T09:55:53.346Z,57.1
2018-08-23T09:56:44.588Z,57.1
2018-08-23T09:57:33.417Z,57.2
2018-08-23T09:58:24.049Z,57.2
2018-08-23T09:59:14.131Z,57.3
2018-08-23T10:00:03.634Z,57.4
2018-08-23T10:00:53.980Z,57.4
2018-08-23T10:01:44.326Z,57.5
2018-08-23T10:02:34.163Z,57.6
2018-08-23T10:03:24.527Z,57.6
2018-08-23T10:04:14.849Z,57.6
2018-08-23T10:05:04.637Z,57.7
2018-08-23T10:07:34.266Z,57.8
2018-08-23T10:08:24.865Z,57.9
2018-08-23T10:09:14.630Z,57.9
2018-08-23T10:10:04.995Z,57.9
2018-08-23T10:10:54.752Z,58
2018-08-23T10:11:45.903Z,58.1
2018-08-23T10:12:34.695Z,58.1
2018-08-23T10:13:24.960Z,58.1
2018-08-23T10:14:15.025Z,58.2
2018-08-23T10:15:05.371Z,58.2
2018-08-23T10:15:54.570Z,58.3
2018-08-23T10:16:45.015Z,58.3
2018-08-23T10:17:35.581Z,58.4
2018-08-23T10:18:24.479Z,58.4
2018-08-23T10:19:15.649Z,58.4
2018-08-23T10:20:05.539Z,58.5
2018-08-23T10:21:45.926Z,58.6
2018-08-23T10:22:35.962Z,58.7
2018-08-23T10:23:26.013Z,58.8
2018-08-23T10:24:16.095Z,58.8
2018-08-23T10:25:06.168Z,58.8
2018-08-23T10:25:56.198Z,58.9
2018-08-23T10:26:46.888Z,58.9
2018-08-23T10:27:36.530Z,59
2018-08-23T10:28:26.143Z,59
2018-08-23T10:29:16.448Z,59
2018-08-23T10:30:06.533Z,59.1
2018-08-23T10:30:56.381Z,59.1
2018-08-23T10:31:46.155Z,59.1
2018-08-23T10:32:36.813Z,59.1
2018-08-23T10:33:26.877Z,59.2
2018-08-23T10:34:16.948Z,59.2
2018-08-23T10:35:06.690Z,59.3
2018-08-23T10:35:56.787Z,59.3
2018-08-23T10:36:46.540Z,59.3
2018-08-23T10:37:37.215Z,59.3
2018-08-23T10:38:26.693Z,59.4
2018-08-23T10:39:17.073Z,59.4
2018-08-23T10:40:07.365Z,59.4
2018-08-23T10:40:57.187Z,59.4
2018-08-23T10:41:46.660Z,59.5
2018-08-23T10:42:37.261Z,59.6
2018-08-23T10:43:27.029Z,59.6
2018-08-23T10:44:17.087Z,59.6
2018-08-23T10:45:07.177Z,59.6
2018-08-23T10:45:56.943Z,59.7
2018-08-23T10:46:47.590Z,59.8
2018-08-23T10:47:37.665Z,59.8
2018-08-23T10:48:27.775Z,59.8
2018-08-23T10:49:17.799Z,59.9
2018-08-23T10:50:07.841Z,59.9
2018-08-23T10:50:57.923Z,59.9
2018-08-23T10:51:48.035Z,60
2018-08-23T10:52:38.334Z,60.1
2018-08-23T10:53:28.347Z,60.1
2018-08-23T10:54:18.464Z,60.1
2018-08-23T10:55:08.509Z,60.2
2018-08-23T10:55:58.577Z,60.2
2018-08-23T10:56:48.629Z,60.3
2018-08-23T10:57:38.392Z,60.3
2018-08-23T10:58:28.769Z,60.3
2018-08-23T10:59:18.867Z,60.4
2018-08-23T11:00:08.869Z,60.4
2018-08-23T11:00:58.994Z,60.4
2018-08-23T11:01:48.766Z,60.5
2018-08-23T11:02:39.069Z,60.6
2018-08-23T11:03:28.894Z,60.6
2018-08-23T11:04:19.259Z,60.6
2018-08-23T11:05:09.276Z,60.7
2018-08-23T11:05:59.083Z,60.7
2018-08-23T11:06:48.943Z,60.8
2018-08-23T11:07:39.238Z,60.8
2018-08-23T11:08:29.530Z,60.9
2018-08-23T11:09:19.663Z,60.9
2018-08-23T11:10:09.691Z,60.9
2018-08-23T11:10:59.772Z,61
2018-08-23T11:11:49.698Z,61.1
2018-08-23T11:12:39.894Z,61.1
2018-08-23T11:13:30.018Z,61.1
2018-08-23T11:14:19.743Z,61.2
2018-08-23T11:15:09.568Z,61.2
2018-08-23T11:16:00.122Z,61.3
2018-08-23T11:16:51.011Z,61.3
2018-08-23T11:17:40.276Z,61.3
2018-08-23T11:18:30.342Z,61.4
2018-08-23T11:19:20.421Z,61.4
2018-08-23T11:20:10.039Z,61.5
2018-08-23T11:21:00.280Z,61.6
2018-08-23T11:21:50.560Z,61.6
2018-08-23T11:22:40.641Z,61.6
2018-08-23T11:23:30.451Z,61.7
2018-08-23T11:24:20.907Z,61.8
2018-08-23T11:25:10.884Z,61.8
2018-08-23T11:26:00.655Z,61.8
2018-08-23T11:26:50.692Z,61.9
2018-08-23T11:27:41.064Z,61.9
2018-08-23T11:28:30.302Z,62
2018-08-23T11:29:20.609Z,62
2018-08-23T11:30:11.244Z,62.1
2018-08-23T11:31:01.007Z,62.1
2018-08-23T11:31:51.367Z,62.1
2018-08-23T11:32:41.431Z,62.2
2018-08-23T11:33:31.553Z,62.3
2018-08-23T11:34:21.277Z,62.3
2018-08-23T11:35:12.152Z,62.3
2018-08-23T11:36:01.753Z,62.4
2018-08-23T11:36:51.522Z,62.4
2018-08-23T11:37:41.305Z,62.4
2018-08-23T11:38:31.352Z,62.5
2018-08-23T11:39:22.008Z,62.6
2018-08-23T11:40:12.099Z,62.6
2018-08-23T11:41:01.597Z,62.6
2018-08-23T11:41:51.938Z,62.7
2018-08-23T11:42:42.794Z,62.8
2018-08-23T11:43:32.337Z,62.8
2018-08-23T11:44:22.082Z,62.8
2018-08-23T11:45:12.172Z,62.9
2018-08-23T11:46:02.577Z,62.9
2018-08-23T11:46:52.354Z,62.9
2018-08-23T11:47:42.669Z,63
2018-08-23T11:48:32.739Z,63
2018-08-23T11:49:22.780Z,63.1
2018-08-23T11:50:12.871Z,63.1
2018-08-23T11:51:02.107Z,63.1
2018-08-23T11:51:52.406Z,63.2
2018-08-23T11:52:42.539Z,63.2
2018-08-23T11:53:35.847Z,63.3
2018-08-23T11:54:22.606Z,63.3
2018-08-23T11:55:12.941Z,63.3
2018-08-23T11:56:03.334Z,63.4
2018-08-23T11:56:53.109Z,63.4
2018-08-23T11:57:42.859Z,63.4
2018-08-23T11:58:33.904Z,63.5
2018-08-23T11:59:23.061Z,63.5
2018-08-23T12:00:13.367Z,63.6
2018-08-23T12:01:03.750Z,63.6
2018-08-23T12:01:53.896Z,63.6
2018-08-23T12:02:43.337Z,63.7
2018-08-23T12:03:33.645Z,63.7
2018-08-23T12:04:23.703Z,63.8
2018-08-23T12:05:13.420Z,63.8
2018-08-23T12:06:03.794Z,63.8
2018-08-23T12:06:54.133Z,63.8
2018-08-23T12:07:44.341Z,63.9
2018-08-23T12:08:34.015Z,63.9
2018-08-23T12:09:24.389Z,63.9
2018-08-23T12:10:14.413Z,63.9
2018-08-23T12:11:04.193Z,63.9
2018-08-23T12:11:54.351Z,64
2018-08-23T12:12:44.025Z,64
2018-08-23T12:13:34.690Z,64.1